sensor_id;sensor_type;location;lat;lon;timestamp;P1;durP1;ratioP1;P2;durP2;ratioP2
80576;SDS011;69937;52.420;10.538;2023-08-24T00:03:57;3.95;;;1.80;;
80576;SDS011;69937;52.420;10.538;2023-08-24T00:08:57;3.22;;;1.77;;
80576;SDS011;69937;52.420;10.538;2023-08-24T00:13:59;2.67;;;1.75;;
80576;SDS011;69937;52.420;10.538;2023-08-24T00:19:00;6.70;;;1.95;;
80576;SDS011;69937;52.420;10.538;2023-08-24T00:24:00;6.20;;;1.88;;
80576;SDS011;69937;52.420;10.538;2023-08-24T00:29:01;2.42;;;2.17;;
80576;SDS011;69937;52.420;10.538;2023-08-24T00:34:01;4.78;;;2.42;;
80576;SDS011;69937;52.420;10.538;2023-08-24T00:39:02;4.28;;;2.75;;
80576;SDS011;69937;52.420;10.538;2023-08-24T00:44:02;4.00;;;2.42;;
80576;SDS011;69937;52.420;10.538;2023-08-24T00:49:03;5.90;;;3.05;;
80576;SDS011;69937;52.420;10.538;2023-08-24T00:54:04;6.20;;;2.55;;
80576;SDS011;69937;52.420;10.538;2023-08-24T00:59:05;5.38;;;2.88;;
80576;SDS011;69937;52.420;10.538;2023-08-24T01:04:05;12.88;;;2.70;;
80576;SDS011;69937;52.420;10.538;2023-08-24T01:09:07;6.10;;;2.97;;
80576;SDS011;69937;52.420;10.538;2023-08-24T01:14:09;8.25;;;3.17;;
80576;SDS011;69937;52.420;10.538;2023-08-24T01:19:22;3.65;;;2.55;;
80576;SDS011;69937;52.420;10.538;2023-08-24T01:24:45;8.23;;;2.70;;
80576;SDS011;69937;52.420;10.538;2023-08-24T01:29:53;4.65;;;2.85;;
80576;SDS011;69937;52.420;10.538;2023-08-24T01:34:56;4.50;;;3.35;;
80576;SDS011;69937;52.420;10.538;2023-08-24T01:40:03;4.97;;;2.85;;
80576;SDS011;69937;52.420;10.538;2023-08-24T01:45:09;7.60;;;2.80;;
80576;SDS011;69937;52.420;10.538;2023-08-24T01:50:13;8.00;;;3.10;;
80576;SDS011;69937;52.420;10.538;2023-08-24T01:55:13;6.90;;;2.85;;
80576;SDS011;69937;52.420;10.538;2023-08-24T02:00:15;9.20;;;3.05;;
80576;SDS011;69937;52.420;10.538;2023-08-24T02:05:16;6.45;;;3.08;;
80576;SDS011;69937;52.420;10.538;2023-08-24T02:10:16;4.03;;;2.55;;
80576;SDS011;69937;52.420;10.538;2023-08-24T02:15:17;8.23;;;3.45;;
80576;SDS011;69937;52.420;10.538;2023-08-24T02:20:17;4.28;;;2.97;;
80576;SDS011;69937;52.420;10.538;2023-08-24T02:25:18;7.35;;;2.83;;
80576;SDS011;69937;52.420;10.538;2023-08-24T02:30:19;4.45;;;2.70;;
80576;SDS011;69937;52.420;10.538;2023-08-24T02:35:19;7.95;;;3.20;;
80576;SDS011;69937;52.420;10.538;2023-08-24T02:40:20;7.35;;;3.05;;
80576;SDS011;69937;52.420;10.538;2023-08-24T02:45:20;6.07;;;2.88;;
80576;SDS011;69937;52.420;10.538;2023-08-24T02:50:21;9.68;;;3.00;;
80576;SDS011;69937;52.420;10.538;2023-08-24T02:55:21;4.40;;;2.70;;
80576;SDS011;69937;52.420;10.538;2023-08-24T03:00:22;7.25;;;2.90;;
80576;SDS011;69937;52.420;10.538;2023-08-24T03:05:23;5.93;;;2.63;;
80576;SDS011;69937;52.420;10.538;2023-08-24T03:10:24;3.60;;;2.75;;
80576;SDS011;69937;52.420;10.538;2023-08-24T03:15:24;8.90;;;3.15;;
80576;SDS011;69937;52.420;10.538;2023-08-24T03:20:25;7.80;;;3.08;;
80576;SDS011;69937;52.420;10.538;2023-08-24T03:25:25;5.03;;;2.65;;
80576;SDS011;69937;52.420;10.538;2023-08-24T03:30:26;5.32;;;2.75;;
80576;SDS011;69937;52.420;10.538;2023-08-24T03:35:26;3.78;;;2.70;;
80576;SDS011;69937;52.420;10.538;2023-08-24T03:40:28;5.50;;;2.63;;
80576;SDS011;69937;52.420;10.538;2023-08-24T03:45:29;7.80;;;2.75;;
80576;SDS011;69937;52.420;10.538;2023-08-24T03:50:29;3.05;;;2.47;;
80576;SDS011;69937;52.420;10.538;2023-08-24T03:55:30;6.57;;;3.22;;
80576;SDS011;69937;52.420;10.538;2023-08-24T04:00:32;7.80;;;3.03;;
80576;SDS011;69937;52.420;10.538;2023-08-24T04:05:33;6.60;;;3.80;;
80576;SDS011;69937;52.420;10.538;2023-08-24T04:10:34;4.57;;;3.15;;
80576;SDS011;69937;52.420;10.538;2023-08-24T04:15:34;6.18;;;3.03;;
80576;SDS011;69937;52.420;10.538;2023-08-24T04:20:35;5.20;;;3.20;;
80576;SDS011;69937;52.420;10.538;2023-08-24T04:25:38;5.97;;;3.55;;
80576;SDS011;69937;52.420;10.538;2023-08-24T04:30:39;6.63;;;3.33;;
80576;SDS011;69937;52.420;10.538;2023-08-24T04:35:40;6.43;;;3.53;;
80576;SDS011;69937;52.420;10.538;2023-08-24T04:40:59;5.32;;;3.58;;
80576;SDS011;69937;52.420;10.538;2023-08-24T04:45:59;6.07;;;3.35;;
80576;SDS011;69937;52.420;10.538;2023-08-24T04:51:00;7.60;;;3.33;;
80576;SDS011;69937;52.420;10.538;2023-08-24T04:56:02;4.53;;;3.35;;
80576;SDS011;69937;52.420;10.538;2023-08-24T05:01:02;8.43;;;3.50;;
80576;SDS011;69937;52.420;10.538;2023-08-24T05:06:03;4.85;;;3.45;;
80576;SDS011;69937;52.420;10.538;2023-08-24T05:11:13;8.18;;;3.10;;
80576;SDS011;69937;52.420;10.538;2023-08-24T05:16:16;6.95;;;3.45;;
80576;SDS011;69937;52.420;10.538;2023-08-24T05:21:17;7.03;;;3.17;;
80576;SDS011;69937;52.420;10.538;2023-08-24T05:26:17;8.68;;;3.38;;
80576;SDS011;69937;52.420;10.538;2023-08-24T05:36:23;6.32;;;3.85;;
80576;SDS011;69937;52.420;10.538;2023-08-24T05:41:23;4.55;;;3.45;;
80576;SDS011;69937;52.420;10.538;2023-08-24T05:46:24;8.77;;;3.67;;
80576;SDS011;69937;52.420;10.538;2023-08-24T05:51:24;7.80;;;3.05;;
80576;SDS011;69937;52.420;10.538;2023-08-24T05:56:25;9.75;;;3.25;;
80576;SDS011;69937;52.420;10.538;2023-08-24T06:01:25;5.15;;;3.53;;
80576;SDS011;69937;52.420;10.538;2023-08-24T06:06:26;6.05;;;3.03;;
80576;SDS011;69937;52.420;10.538;2023-08-24T06:11:27;5.85;;;3.35;;
80576;SDS011;69937;52.420;10.538;2023-08-24T06:16:28;5.95;;;3.03;;
80576;SDS011;69937;52.420;10.538;2023-08-24T06:21:29;7.25;;;3.63;;
80576;SDS011;69937;52.420;10.538;2023-08-24T06:26:29;6.50;;;3.33;;
80576;SDS011;69937;52.420;10.538;2023-08-24T06:31:30;11.48;;;3.17;;
80576;SDS011;69937;52.420;10.538;2023-08-24T06:36:31;5.78;;;3.15;;
80576;SDS011;69937;52.420;10.538;2023-08-24T06:41:35;4.65;;;2.65;;
80576;SDS011;69937;52.420;10.538;2023-08-24T06:46:35;8.02;;;3.42;;
80576;SDS011;69937;52.420;10.538;2023-08-24T06:51:36;6.93;;;3.10;;
80576;SDS011;69937;52.420;10.538;2023-08-24T06:56:37;8.50;;;3.65;;
80576;SDS011;69937;52.420;10.538;2023-08-24T07:01:37;6.45;;;3.13;;
80576;SDS011;69937;52.420;10.538;2023-08-24T07:06:38;9.52;;;3.42;;
80576;SDS011;69937;52.420;10.538;2023-08-24T07:11:39;7.13;;;3.65;;
80576;SDS011;69937;52.420;10.538;2023-08-24T07:16:40;8.15;;;3.65;;
80576;SDS011;69937;52.420;10.538;2023-08-24T07:21:40;10.70;;;4.18;;
80576;SDS011;69937;52.420;10.538;2023-08-24T07:26:41;7.95;;;3.17;;
80576;SDS011;69937;52.420;10.538;2023-08-24T07:31:42;7.80;;;3.70;;
80576;SDS011;69937;52.420;10.538;2023-08-24T07:36:42;8.13;;;4.03;;
80576;SDS011;69937;52.420;10.538;2023-08-24T07:41:44;5.05;;;3.05;;
80576;SDS011;69937;52.420;10.538;2023-08-24T07:46:46;16.10;;;3.92;;
80576;SDS011;69937;52.420;10.538;2023-08-24T07:51:47;6.88;;;3.05;;
80576;SDS011;69937;52.420;10.538;2023-08-24T07:56:48;5.03;;;3.53;;
80576;SDS011;69937;52.420;10.538;2023-08-24T08:01:48;4.97;;;3.30;;
80576;SDS011;69937;52.420;10.538;2023-08-24T08:06:49;10.40;;;3.25;;
80576;SDS011;69937;52.420;10.538;2023-08-24T08:11:49;6.03;;;3.03;;
80576;SDS011;69937;52.420;10.538;2023-08-24T08:16:50;9.68;;;2.55;;
80576;SDS011;69937;52.420;10.538;2023-08-24T08:21:51;7.43;;;2.83;;
80576;SDS011;69937;52.420;10.538;2023-08-24T08:26:51;8.32;;;2.88;;
80576;SDS011;69937;52.420;10.538;2023-08-24T08:31:52;4.43;;;2.75;;
80576;SDS011;69937;52.420;10.538;2023-08-24T08:36:53;7.80;;;2.55;;
80576;SDS011;69937;52.420;10.538;2023-08-24T08:41:54;5.25;;;2.45;;
80576;SDS011;69937;52.420;10.538;2023-08-24T08:46:55;5.63;;;2.47;;
80576;SDS011;69937;52.420;10.538;2023-08-24T08:51:57;6.68;;;2.80;;
80576;SDS011;69937;52.420;10.538;2023-08-24T08:56:57;5.30;;;2.38;;
80576;SDS011;69937;52.420;10.538;2023-08-24T09:02:03;5.28;;;2.38;;
80576;SDS011;69937;52.420;10.538;2023-08-24T09:07:04;5.55;;;2.13;;
80576;SDS011;69937;52.420;10.538;2023-08-24T09:12:10;8.00;;;2.63;;
80576;SDS011;69937;52.420;10.538;2023-08-24T09:17:16;7.30;;;2.40;;
80576;SDS011;69937;52.420;10.538;2023-08-24T09:22:20;6.55;;;2.83;;
80576;SDS011;69937;52.420;10.538;2023-08-24T09:27:21;8.48;;;2.85;;
80576;SDS011;69937;52.420;10.538;2023-08-24T09:32:22;5.85;;;2.47;;
80576;SDS011;69937;52.420;10.538;2023-08-24T09:37:33;6.85;;;2.83;;
80576;SDS011;69937;52.420;10.538;2023-08-24T09:42:38;5.30;;;2.50;;
80576;SDS011;69937;52.420;10.538;2023-08-24T09:47:44;4.72;;;2.20;;
80576;SDS011;69937;52.420;10.538;2023-08-24T09:52:54;2.92;;;2.05;;
80576;SDS011;69937;52.420;10.538;2023-08-24T09:58:01;4.13;;;2.05;;
80576;SDS011;69937;52.420;10.538;2023-08-24T10:03:04;5.60;;;1.95;;
80576;SDS011;69937;52.420;10.538;2023-08-24T10:08:05;7.57;;;2.08;;
80576;SDS011;69937;52.420;10.538;2023-08-24T10:13:14;4.60;;;1.92;;
80576;SDS011;69937;52.420;10.538;2023-08-24T10:18:29;5.30;;;2.65;;
80576;SDS011;69937;52.420;10.538;2023-08-24T10:23:30;6.78;;;2.75;;
80576;SDS011;69937;52.420;10.538;2023-08-24T10:28:33;5.65;;;2.25;;
80576;SDS011;69937;52.420;10.538;2023-08-24T10:33:35;6.78;;;3.10;;
80576;SDS011;69937;52.420;10.538;2023-08-24T10:38:39;6.25;;;2.53;;
80576;SDS011;69937;52.420;10.538;2023-08-24T10:43:48;4.88;;;2.25;;
80576;SDS011;69937;52.420;10.538;2023-08-24T10:53:59;6.07;;;2.45;;
80576;SDS011;69937;52.420;10.538;2023-08-24T10:59:12;5.65;;;2.38;;
80576;SDS011;69937;52.420;10.538;2023-08-24T11:04:17;5.25;;;2.20;;
80576;SDS011;69937;52.420;10.538;2023-08-24T11:09:18;6.35;;;2.53;;
80576;SDS011;69937;52.420;10.538;2023-08-24T11:14:20;6.47;;;2.58;;
80576;SDS011;69937;52.420;10.538;2023-08-24T11:19:25;4.78;;;1.98;;
80576;SDS011;69937;52.420;10.538;2023-08-24T11:24:26;3.45;;;1.70;;
80576;SDS011;69937;52.420;10.538;2023-08-24T11:29:28;5.60;;;2.00;;
80576;SDS011;69937;52.420;10.538;2023-08-24T11:34:29;3.80;;;2.10;;
80576;SDS011;69937;52.420;10.538;2023-08-24T11:39:30;7.43;;;2.83;;
80576;SDS011;69937;52.420;10.538;2023-08-24T11:44:46;6.50;;;2.08;;
80576;SDS011;69937;52.420;10.538;2023-08-24T11:49:47;4.20;;;1.60;;
80576;SDS011;69937;52.420;10.538;2023-08-24T11:54:50;2.92;;;1.65;;
80576;SDS011;69937;52.420;10.538;2023-08-24T11:59:51;5.45;;;1.92;;
80576;SDS011;69937;52.420;10.538;2023-08-24T12:04:52;4.32;;;1.70;;
80576;SDS011;69937;52.420;10.538;2023-08-24T12:09:53;6.47;;;1.80;;
80576;SDS011;69937;52.420;10.538;2023-08-24T12:14:55;3.80;;;1.50;;
80576;SDS011;69937;52.420;10.538;2023-08-24T12:19:58;5.45;;;1.70;;
80576;SDS011;69937;52.420;10.538;2023-08-24T12:25:01;3.97;;;1.60;;
80576;SDS011;69937;52.420;10.538;2023-08-24T12:30:01;2.95;;;1.27;;
80576;SDS011;69937;52.420;10.538;2023-08-24T12:35:02;5.70;;;1.70;;
80576;SDS011;69937;52.420;10.538;2023-08-24T12:40:03;3.15;;;1.30;;
80576;SDS011;69937;52.420;10.538;2023-08-24T12:45:07;2.67;;;1.05;;
80576;SDS011;69937;52.420;10.538;2023-08-24T12:50:08;2.90;;;1.20;;
80576;SDS011;69937;52.420;10.538;2023-08-24T12:55:09;4.05;;;1.27;;
80576;SDS011;69937;52.420;10.538;2023-08-24T13:00:10;4.10;;;1.10;;
80576;SDS011;69937;52.420;10.538;2023-08-24T13:05:11;2.22;;;0.93;;
80576;SDS011;69937;52.420;10.538;2023-08-24T13:10:11;3.88;;;1.15;;
80576;SDS011;69937;52.420;10.538;2023-08-24T13:15:12;3.45;;;1.20;;
80576;SDS011;69937;52.420;10.538;2023-08-24T13:20:13;3.20;;;1.30;;
80576;SDS011;69937;52.420;10.538;2023-08-24T13:25:14;3.63;;;1.23;;
80576;SDS011;69937;52.420;10.538;2023-08-24T13:30:14;3.50;;;1.25;;
80576;SDS011;69937;52.420;10.538;2023-08-24T13:35:15;3.58;;;1.42;;
80576;SDS011;69937;52.420;10.538;2023-08-24T13:40:16;4.70;;;1.23;;
80576;SDS011;69937;52.420;10.538;2023-08-24T13:45:16;3.75;;;1.00;;
80576;SDS011;69937;52.420;10.538;2023-08-24T13:50:17;4.75;;;1.38;;
80576;SDS011;69937;52.420;10.538;2023-08-24T13:55:18;3.80;;;1.23;;
80576;SDS011;69937;52.420;10.538;2023-08-24T14:00:19;3.78;;;1.08;;
80576;SDS011;69937;52.420;10.538;2023-08-24T14:05:19;1.58;;;0.80;;
80576;SDS011;69937;52.420;10.538;2023-08-24T14:10:20;4.07;;;1.02;;
80576;SDS011;69937;52.420;10.538;2023-08-24T14:15:20;4.13;;;1.13;;
80576;SDS011;69937;52.420;10.538;2023-08-24T14:20:21;2.17;;;0.85;;
80576;SDS011;69937;52.420;10.538;2023-08-24T14:25:22;1.95;;;1.02;;
80576;SDS011;69937;52.420;10.538;2023-08-24T14:30:22;3.05;;;1.10;;
80576;SDS011;69937;52.420;10.538;2023-08-24T14:35:30;4.03;;;1.48;;
80576;SDS011;69937;52.420;10.538;2023-08-24T14:40:32;2.88;;;1.45;;
80576;SDS011;69937;52.420;10.538;2023-08-24T14:45:32;4.78;;;1.50;;
80576;SDS011;69937;52.420;10.538;2023-08-24T14:50:33;6.72;;;1.48;;
80576;SDS011;69937;52.420;10.538;2023-08-24T14:55:37;3.60;;;1.50;;
80576;SDS011;69937;52.420;10.538;2023-08-24T15:00:38;3.03;;;1.40;;
80576;SDS011;69937;52.420;10.538;2023-08-24T15:05:43;7.90;;;1.65;;
80576;SDS011;69937;52.420;10.538;2023-08-24T15:10:45;7.60;;;1.35;;
80576;SDS011;69937;52.420;10.538;2023-08-24T15:15:47;2.28;;;1.27;;
80576;SDS011;69937;52.420;10.538;2023-08-24T15:20:48;6.88;;;0.95;;
80576;SDS011;69937;52.420;10.538;2023-08-24T15:25:49;3.13;;;0.93;;
80576;SDS011;69937;52.420;10.538;2023-08-24T15:30:49;9.73;;;1.75;;
80576;SDS011;69937;52.420;10.538;2023-08-24T15:35:50;2.50;;;1.15;;
80576;SDS011;69937;52.420;10.538;2023-08-24T15:40:52;5.68;;;1.15;;
80576;SDS011;69937;52.420;10.538;2023-08-24T15:45:56;6.55;;;1.35;;
80576;SDS011;69937;52.420;10.538;2023-08-24T15:50:57;3.42;;;1.10;;
80576;SDS011;69937;52.420;10.538;2023-08-24T15:55:58;2.28;;;0.98;;
80576;SDS011;69937;52.420;10.538;2023-08-24T16:00:59;3.90;;;1.40;;
80576;SDS011;69937;52.420;10.538;2023-08-24T16:06:01;6.25;;;1.40;;
80576;SDS011;69937;52.420;10.538;2023-08-24T16:11:01;2.85;;;0.98;;
80576;SDS011;69937;52.420;10.538;2023-08-24T16:16:02;3.55;;;0.90;;
80576;SDS011;69937;52.420;10.538;2023-08-24T16:21:03;2.78;;;1.40;;
80576;SDS011;69937;52.420;10.538;2023-08-24T16:26:03;5.82;;;1.30;;
80576;SDS011;69937;52.420;10.538;2023-08-24T16:31:04;2.70;;;1.13;;
80576;SDS011;69937;52.420;10.538;2023-08-24T16:36:04;3.10;;;1.30;;
80576;SDS011;69937;52.420;10.538;2023-08-24T16:41:05;2.38;;;1.10;;
80576;SDS011;69937;52.420;10.538;2023-08-24T16:46:05;4.60;;;1.40;;
80576;SDS011;69937;52.420;10.538;2023-08-24T16:51:06;3.47;;;1.20;;
80576;SDS011;69937;52.420;10.538;2023-08-24T16:56:07;2.65;;;1.33;;
80576;SDS011;69937;52.420;10.538;2023-08-24T17:01:07;4.68;;;1.35;;
80576;SDS011;69937;52.420;10.538;2023-08-24T17:06:10;13.60;;;1.50;;
80576;SDS011;69937;52.420;10.538;2023-08-24T17:11:10;17.83;;;1.90;;
80576;SDS011;69937;52.420;10.538;2023-08-24T17:16:11;3.47;;;1.30;;
80576;SDS011;69937;52.420;10.538;2023-08-24T17:21:11;1.90;;;1.08;;
80576;SDS011;69937;52.420;10.538;2023-08-24T17:26:12;5.93;;;1.70;;
80576;SDS011;69937;52.420;10.538;2023-08-24T17:31:12;7.07;;;1.40;;
80576;SDS011;69937;52.420;10.538;2023-08-24T17:36:13;2.72;;;1.30;;
80576;SDS011;69937;52.420;10.538;2023-08-24T17:41:14;5.25;;;1.38;;
80576;SDS011;69937;52.420;10.538;2023-08-24T17:46:15;11.88;;;1.55;;
80576;SDS011;69937;52.420;10.538;2023-08-24T17:51:15;4.63;;;1.40;;
80576;SDS011;69937;52.420;10.538;2023-08-24T17:56:16;3.70;;;1.98;;
80576;SDS011;69937;52.420;10.538;2023-08-24T18:01:16;9.00;;;2.63;;
80576;SDS011;69937;52.420;10.538;2023-08-24T18:06:17;4.35;;;1.33;;
80576;SDS011;69937;52.420;10.538;2023-08-24T18:11:17;6.03;;;1.58;;
80576;SDS011;69937;52.420;10.538;2023-08-24T18:16:18;6.22;;;1.90;;
80576;SDS011;69937;52.420;10.538;2023-08-24T18:21:19;7.40;;;1.85;;
80576;SDS011;69937;52.420;10.538;2023-08-24T18:26:20;9.55;;;1.30;;
80576;SDS011;69937;52.420;10.538;2023-08-24T18:31:20;23.17;;;2.70;;
80576;SDS011;69937;52.420;10.538;2023-08-24T18:36:24;61.67;;;5.63;;
80576;SDS011;69937;52.420;10.538;2023-08-24T18:41:24;61.03;;;4.60;;
80576;SDS011;69937;52.420;10.538;2023-08-24T18:46:25;38.63;;;4.40;;
80576;SDS011;69937;52.420;10.538;2023-08-24T18:51:25;15.43;;;2.25;;
80576;SDS011;69937;52.420;10.538;2023-08-24T18:56:26;108.53;;;7.00;;
80576;SDS011;69937;52.420;10.538;2023-08-24T19:01:26;65.68;;;5.15;;
80576;SDS011;69937;52.420;10.538;2023-08-24T19:06:27;36.47;;;3.30;;
80576;SDS011;69937;52.420;10.538;2023-08-24T19:11:28;192.88;;;11.85;;
80576;SDS011;69937;52.420;10.538;2023-08-24T19:16:28;252.02;;;16.58;;
80576;SDS011;69937;52.420;10.538;2023-08-24T19:21:29;298.77;;;16.95;;
80576;SDS011;69937;52.420;10.538;2023-08-24T19:26:30;82.88;;;7.82;;
80576;SDS011;69937;52.420;10.538;2023-08-24T19:31:30;18.13;;;2.13;;
80576;SDS011;69937;52.420;10.538;2023-08-24T19:36:31;3.35;;;1.35;;
80576;SDS011;69937;52.420;10.538;2023-08-24T19:41:31;5.13;;;1.95;;
80576;SDS011;69937;52.420;10.538;2023-08-24T19:46:32;11.35;;;1.75;;
80576;SDS011;69937;52.420;10.538;2023-08-24T19:51:33;10.68;;;1.83;;
80576;SDS011;69937;52.420;10.538;2023-08-24T19:56:34;3.63;;;1.85;;
80576;SDS011;69937;52.420;10.538;2023-08-24T20:01:34;7.35;;;2.30;;
80576;SDS011;69937;52.420;10.538;2023-08-24T20:06:35;4.82;;;2.15;;
80576;SDS011;69937;52.420;10.538;2023-08-24T20:11:35;6.05;;;1.90;;
80576;SDS011;69937;52.420;10.538;2023-08-24T20:16:36;5.00;;;2.40;;
80576;SDS011;69937;52.420;10.538;2023-08-24T20:21:36;5.68;;;2.33;;
80576;SDS011;69937;52.420;10.538;2023-08-24T20:26:37;6.05;;;2.10;;
80576;SDS011;69937;52.420;10.538;2023-08-24T20:31:39;4.47;;;2.05;;
80576;SDS011;69937;52.420;10.538;2023-08-24T20:36:39;5.50;;;1.77;;
80576;SDS011;69937;52.420;10.538;2023-08-24T20:41:40;4.13;;;2.33;;
80576;SDS011;69937;52.420;10.538;2023-08-24T20:46:43;4.93;;;2.08;;
80576;SDS011;69937;52.420;10.538;2023-08-24T20:51:44;10.65;;;2.70;;
80576;SDS011;69937;52.420;10.538;2023-08-24T20:56:45;5.25;;;2.60;;
80576;SDS011;69937;52.420;10.538;2023-08-24T21:01:46;3.50;;;2.42;;
80576;SDS011;69937;52.420;10.538;2023-08-24T21:06:46;6.28;;;2.28;;
80576;SDS011;69937;52.420;10.538;2023-08-24T21:11:47;9.07;;;2.25;;
80576;SDS011;69937;52.420;10.538;2023-08-24T21:16:47;8.93;;;2.13;;
80576;SDS011;69937;52.420;10.538;2023-08-24T21:21:48;7.63;;;2.20;;
80576;SDS011;69937;52.420;10.538;2023-08-24T21:26:48;7.20;;;2.25;;
80576;SDS011;69937;52.420;10.538;2023-08-24T21:31:49;6.18;;;2.35;;
80576;SDS011;69937;52.420;10.538;2023-08-24T21:36:50;5.63;;;2.10;;
80576;SDS011;69937;52.420;10.538;2023-08-24T21:41:50;6.18;;;2.17;;
80576;SDS011;69937;52.420;10.538;2023-08-24T21:46:51;13.00;;;2.42;;
80576;SDS011;69937;52.420;10.538;2023-08-24T21:51:51;6.28;;;2.10;;
80576;SDS011;69937;52.420;10.538;2023-08-24T21:56:52;4.35;;;2.00;;
80576;SDS011;69937;52.420;10.538;2023-08-24T22:01:55;8.70;;;2.10;;
80576;SDS011;69937;52.420;10.538;2023-08-24T22:06:55;4.10;;;2.38;;
80576;SDS011;69937;52.420;10.538;2023-08-24T22:11:56;6.90;;;2.08;;
80576;SDS011;69937;52.420;10.538;2023-08-24T22:16:56;5.35;;;2.17;;
80576;SDS011;69937;52.420;10.538;2023-08-24T22:21:57;7.18;;;2.15;;
80576;SDS011;69937;52.420;10.538;2023-08-24T22:26:57;8.10;;;2.50;;
80576;SDS011;69937;52.420;10.538;2023-08-24T22:31:58;11.43;;;2.90;;
80576;SDS011;69937;52.420;10.538;2023-08-24T22:36:59;7.97;;;2.17;;
80576;SDS011;69937;52.420;10.538;2023-08-24T22:42:01;8.60;;;2.45;;
80576;SDS011;69937;52.420;10.538;2023-08-24T22:47:01;4.65;;;2.28;;
80576;SDS011;69937;52.420;10.538;2023-08-24T22:52:02;5.10;;;2.75;;
80576;SDS011;69937;52.420;10.538;2023-08-24T22:57:03;5.85;;;2.60;;
80576;SDS011;69937;52.420;10.538;2023-08-24T23:02:04;6.55;;;2.42;;
80576;SDS011;69937;52.420;10.538;2023-08-24T23:07:04;4.82;;;2.13;;
80576;SDS011;69937;52.420;10.538;2023-08-24T23:12:07;5.88;;;2.83;;
80576;SDS011;69937;52.420;10.538;2023-08-24T23:17:08;5.43;;;2.92;;
80576;SDS011;69937;52.420;10.538;2023-08-24T23:22:08;5.38;;;3.22;;
80576;SDS011;69937;52.420;10.538;2023-08-24T23:27:11;4.90;;;2.50;;
80576;SDS011;69937;52.420;10.538;2023-08-24T23:32:11;4.95;;;2.85;;
80576;SDS011;69937;52.420;10.538;2023-08-24T23:37:12;5.95;;;2.67;;
80576;SDS011;69937;52.420;10.538;2023-08-24T23:42:13;4.47;;;2.63;;
80576;SDS011;69937;52.420;10.538;2023-08-24T23:47:13;10.52;;;2.85;;
80576;SDS011;69937;52.420;10.538;2023-08-24T23:52:14;5.00;;;2.65;;
80576;SDS011;69937;52.420;10.538;2023-08-24T23:57:15;6.45;;;2.97;;
